createdAt,value
2018-11-07T00:02:05.133Z,98906.00
2018-11-07T00:04:33.302Z,98918.00
2018-11-07T00:07:01.389Z,98928.00
2018-11-07T00:09:29.537Z,98930.00
2018-11-07T00:11:57.754Z,98927.00
2018-11-07T00:14:25.926Z,98931.00
2018-11-07T00:16:54.102Z,98936.00
2018-11-07T00:19:22.281Z,98939.00
2018-11-07T00:21:55.755Z,98937.00
2018-11-07T00:24:23.912Z,98933.00
2018-11-07T00:26:52.114Z,98931.00
2018-11-07T00:29:20.432Z,98937.00
2018-11-07T00:31:54.131Z,98939.00
2018-11-07T00:34:22.428Z,98941.00
2018-11-07T00:36:50.580Z,98947.00
2018-11-07T00:39:18.865Z,98945.00
2018-11-07T00:41:47.023Z,98942.00
2018-11-07T00:44:15.160Z,98948.00
2018-11-07T00:46:43.957Z,98943.00
2018-11-07T00:49:12.217Z,98941.00
2018-11-07T00:51:40.352Z,98942.00
2018-11-07T00:54:08.458Z,98938.00
2018-11-07T00:56:36.639Z,98936.00
2018-11-07T00:59:04.855Z,98935.00
2018-11-07T01:01:33.215Z,98946.00
2018-11-07T01:04:01.516Z,98940.00
2018-11-07T01:06:29.737Z,98943.00
2018-11-07T01:08:57.877Z,98945.00
2018-11-07T01:11:26.051Z,98943.00
2018-11-07T01:13:54.173Z,98940.00
2018-11-07T01:16:23.206Z,98942.00
2018-11-07T01:18:51.421Z,98941.00
2018-11-07T01:21:19.577Z,98942.00
2018-11-07T01:23:47.763Z,98945.00
2018-11-07T01:26:16.004Z,98945.00
2018-11-07T01:28:44.257Z,98946.00
2018-11-07T01:31:14.719Z,98936.00
2018-11-07T01:33:43.123Z,98942.00
2018-11-07T01:36:11.250Z,98938.00
2018-11-07T01:38:39.498Z,98936.00
2018-11-07T01:41:07.767Z,98939.00
2018-11-07T01:43:35.924Z,98948.00
2018-11-07T01:46:04.130Z,98948.00
2018-11-07T01:48:32.322Z,98950.00
2018-11-07T01:51:00.482Z,98948.00
2018-11-07T01:53:28.538Z,98943.00
2018-11-07T01:55:56.798Z,98950.00
2018-11-07T01:58:24.997Z,98946.00
2018-11-07T02:00:53.159Z,98936.00
2018-11-07T02:03:21.327Z,98944.00
2018-11-07T02:05:49.504Z,98947.00
2018-11-07T02:08:17.631Z,98944.00
2018-11-07T02:10:45.803Z,98950.00
2018-11-07T02:13:13.937Z,98945.00
2018-11-07T02:15:42.191Z,98936.00
2018-11-07T02:18:10.743Z,98936.00
2018-11-07T02:20:38.892Z,98941.00
2018-11-07T02:23:12.179Z,98944.00
2018-11-07T02:25:40.313Z,98941.00
2018-11-07T02:28:08.502Z,98939.00
2018-11-07T02:30:36.612Z,98939.00
2018-11-07T02:33:04.906Z,98943.00
2018-11-07T02:35:33.133Z,98955.00
2018-11-07T02:38:01.954Z,98963.00
2018-11-07T02:40:30.199Z,98965.00
2018-11-07T02:42:58.620Z,98969.00
2018-11-07T02:45:26.933Z,98965.00
2018-11-07T02:47:55.112Z,98966.00
2018-11-07T02:50:23.280Z,98965.00
2018-11-07T02:53:21.147Z,98961.00
2018-11-07T02:55:49.223Z,98959.00
2018-11-07T02:58:17.355Z,98959.00
2018-11-07T03:00:45.417Z,98953.00
2018-11-07T03:03:18.806Z,98960.00
2018-11-07T03:05:47.001Z,98953.00
2018-11-07T03:08:15.259Z,98955.00
2018-11-07T03:10:43.476Z,98959.00
2018-11-07T03:13:11.724Z,98951.00
2018-11-07T03:15:39.863Z,98947.00
2018-11-07T03:18:08.013Z,98951.00
2018-11-07T03:20:36.161Z,98952.00
2018-11-07T03:23:04.463Z,98953.00
2018-11-07T03:25:32.908Z,98953.00
2018-11-07T03:28:01.074Z,98956.00
2018-11-07T03:30:29.211Z,98951.00
2018-11-07T03:32:58.129Z,98945.00
2018-11-07T03:35:27.247Z,98948.00
2018-11-07T03:37:56.327Z,98948.00
2018-11-07T03:40:25.170Z,98953.00
2018-11-07T03:42:53.523Z,98952.00
2018-11-07T03:45:26.265Z,98957.00
2018-11-07T03:47:55.537Z,98959.00
2018-11-07T03:50:23.786Z,98954.00
2018-11-07T03:52:51.994Z,98967.00
2018-11-07T03:55:20.220Z,98971.00
2018-11-07T03:57:48.371Z,98973.00
2018-11-07T04:00:16.535Z,98978.00
2018-11-07T04:02:44.862Z,98978.00
2018-11-07T04:05:13.094Z,98984.00
2018-11-07T04:07:42.088Z,98984.00
2018-11-07T04:10:13.437Z,98984.00
2018-11-07T04:12:41.701Z,98995.00
2018-11-07T04:15:09.926Z,98997.00
2018-11-07T04:17:38.212Z,98996.00
2018-11-07T04:20:07.550Z,98999.00
2018-11-07T04:22:40.804Z,99002.00
2018-11-07T04:25:09.358Z,98988.00
2018-11-07T04:27:37.637Z,98984.00
2018-11-07T04:30:08.724Z,98982.00
2018-11-07T04:32:37.034Z,98990.00
2018-11-07T04:35:11.878Z,98985.00
2018-11-07T04:37:40.660Z,98988.00
2018-11-07T04:40:10.850Z,98987.00
2018-11-07T04:42:39.181Z,98986.00
2018-11-07T04:45:07.570Z,98989.00
2018-11-07T04:47:37.225Z,98992.00
2018-11-07T04:50:08.767Z,98994.00
2018-11-07T04:52:36.933Z,98991.00
2018-11-07T04:55:05.959Z,98989.00
2018-11-07T04:57:36.644Z,98986.00
2018-11-07T05:00:08.223Z,98983.00
2018-11-07T05:02:36.320Z,98988.00
2018-11-07T05:05:04.916Z,98991.00
2018-11-07T05:07:33.601Z,98998.00
2018-11-07T05:10:01.776Z,98986.00
2018-11-07T05:12:29.936Z,98972.00
2018-11-07T05:14:58.060Z,98973.00
2018-11-07T05:17:26.191Z,98986.00
2018-11-07T05:19:54.362Z,98990.00
2018-11-07T05:22:22.581Z,98992.00
2018-11-07T05:24:50.708Z,98995.00
2018-11-07T05:27:18.867Z,99006.00
2018-11-07T05:29:47.019Z,99014.00
2018-11-07T05:32:15.133Z,99008.00
2018-11-07T05:34:43.298Z,99017.00
2018-11-07T05:37:11.456Z,99017.00
2018-11-07T05:39:39.649Z,99022.00
2018-11-07T05:42:07.831Z,99019.00
2018-11-07T05:44:35.984Z,99014.00
2018-11-07T05:47:04.329Z,99015.00
2018-11-07T05:49:32.468Z,99018.00
2018-11-07T05:52:00.720Z,99024.00
2018-11-07T05:54:28.906Z,99028.00
2018-11-07T05:56:57.143Z,99034.00
2018-11-07T05:59:25.340Z,99030.00
2018-11-07T06:02:12.519Z,99027.00
2018-11-07T06:04:40.708Z,99033.00
2018-11-07T06:07:08.809Z,99031.00
2018-11-07T06:09:38.115Z,99036.00
2018-11-07T06:12:06.285Z,99032.00
2018-11-07T06:14:34.461Z,99030.00
2018-11-07T06:17:02.690Z,99030.00
2018-11-07T06:19:30.871Z,99033.00
2018-11-07T06:21:59.031Z,99037.00
2018-11-07T06:24:27.266Z,99034.00
2018-11-07T06:26:55.444Z,99046.00
2018-11-07T06:29:24.697Z,99060.00
2018-11-07T06:31:54.234Z,99060.00
2018-11-07T06:34:22.408Z,99058.00
2018-11-07T06:36:50.569Z,99062.00
2018-11-07T06:39:18.756Z,99056.00
2018-11-07T06:41:46.916Z,99055.00
2018-11-07T06:44:15.819Z,99060.00
2018-11-07T06:46:44.048Z,99051.00
2018-11-07T06:49:12.690Z,99065.00
2018-11-07T06:51:40.873Z,99065.00
2018-11-07T06:54:09.028Z,99072.00
2018-11-07T06:56:37.520Z,99073.00
2018-11-07T06:59:06.116Z,99067.00
2018-11-07T07:01:34.260Z,99086.00
2018-11-07T07:04:02.464Z,99090.00
2018-11-07T07:06:30.600Z,99090.00
2018-11-07T07:08:58.729Z,99086.00
2018-11-07T07:11:26.950Z,99088.00
2018-11-07T07:13:55.907Z,99085.00
2018-11-07T07:16:24.129Z,99092.00
2018-11-07T07:18:52.267Z,99102.00
2018-11-07T07:21:20.489Z,99095.00
2018-11-07T07:23:48.592Z,99099.00
2018-11-07T07:26:16.780Z,99106.00
2018-11-07T07:28:44.907Z,99101.00
2018-11-07T07:31:13.237Z,99094.00
2018-11-07T07:33:41.927Z,99094.00
2018-11-07T07:36:10.010Z,99092.00
2018-11-07T07:38:38.100Z,99089.00
2018-11-07T07:41:06.268Z,99093.00
2018-11-07T07:43:39.421Z,99096.00
2018-11-07T07:46:07.532Z,99100.00
2018-11-07T07:48:35.726Z,99101.00
2018-11-07T07:51:04.434Z,99103.00
2018-11-07T07:53:32.581Z,99104.00
2018-11-07T07:56:00.789Z,99095.00
2018-11-07T07:58:28.909Z,99093.00
2018-11-07T08:00:57.108Z,99093.00
2018-11-07T08:03:25.285Z,99094.00
2018-11-07T08:05:53.469Z,99089.00
2018-11-07T08:08:21.633Z,99096.00
2018-11-07T08:10:49.736Z,99097.00
2018-11-07T08:13:18.278Z,99094.00
2018-11-07T08:15:46.451Z,99088.00
2018-11-07T08:18:14.581Z,99094.00
2018-11-07T08:20:42.694Z,99093.00
2018-11-07T08:23:10.993Z,99094.00
2018-11-07T08:25:39.217Z,99094.00
2018-11-07T08:28:07.975Z,99097.00
2018-11-07T08:30:37.577Z,99092.00
2018-11-07T08:33:10.803Z,99088.00
2018-11-07T08:35:39.000Z,99080.00
2018-11-07T08:38:07.243Z,99086.00
2018-11-07T08:40:35.404Z,99091.00
2018-11-07T08:43:03.928Z,99090.00
2018-11-07T08:45:32.048Z,99083.00
2018-11-07T08:48:00.189Z,99077.00
2018-11-07T08:50:28.351Z,99087.00
2018-11-07T08:53:10.374Z,99085.00
2018-11-07T08:55:38.526Z,99083.00
2018-11-07T08:58:06.674Z,99086.00
2018-11-07T09:00:34.794Z,99095.00
2018-11-07T09:03:02.947Z,99092.00
2018-11-07T09:05:31.096Z,99098.00
2018-11-07T09:07:59.292Z,99099.00
2018-11-07T09:10:27.445Z,99103.00
2018-11-07T09:12:55.685Z,99100.00
2018-11-07T09:15:23.903Z,99103.00
2018-11-07T09:17:52.102Z,99104.00
2018-11-07T09:20:21.613Z,99098.00
2018-11-07T09:22:50.111Z,99096.00
2018-11-07T09:25:19.414Z,99099.00
2018-11-07T09:27:48.582Z,99106.00
2018-11-07T09:30:20.003Z,99111.00
2018-11-07T09:32:48.232Z,99115.00
2018-11-07T09:35:16.474Z,99119.00
2018-11-07T09:37:44.694Z,99118.00
2018-11-07T09:40:17.488Z,99119.00
2018-11-07T09:42:46.337Z,99114.00
2018-11-07T09:45:16.159Z,99117.00
2018-11-07T09:47:45.065Z,99114.00
2018-11-07T09:50:14.117Z,99112.00
2018-11-07T09:52:42.531Z,99110.00
2018-11-07T09:55:12.730Z,99103.00
2018-11-07T09:57:41.146Z,99101.00
2018-11-07T10:00:12.685Z,99097.00
2018-11-07T10:02:41.068Z,99098.00
2018-11-07T10:05:11.775Z,99101.00
2018-11-07T10:07:40.479Z,99100.00
2018-11-07T10:10:11.946Z,99097.00
2018-11-07T10:12:40.535Z,99093.00
2018-11-07T10:15:11.209Z,99090.00
2018-11-07T10:17:39.414Z,99091.00
2018-11-07T10:20:11.617Z,99086.00
2018-11-07T10:22:46.709Z,99086.00
2018-11-07T10:25:15.053Z,99088.00
2018-11-07T10:27:43.505Z,99095.00
2018-11-07T10:30:13.900Z,99092.00
2018-11-07T10:33:00.800Z,99085.00
2018-11-07T10:35:28.913Z,99089.00
2018-11-07T10:37:57.107Z,99080.00
2018-11-07T10:40:25.193Z,99071.00
2018-11-07T10:42:53.349Z,99069.00
2018-11-07T10:45:21.516Z,99077.00
2018-11-07T10:47:50.141Z,99070.00
2018-11-07T10:50:19.356Z,99070.00
2018-11-07T10:52:48.354Z,99062.00
2018-11-07T10:55:16.937Z,99058.00
2018-11-07T10:57:45.462Z,99056.00
2018-11-07T11:00:20.528Z,99056.00
2018-11-07T11:03:08.723Z,99059.00
2018-11-07T11:05:37.895Z,99052.00
2018-11-07T11:08:06.293Z,99049.00
2018-11-07T11:10:34.387Z,99056.00
2018-11-07T11:13:02.586Z,99059.00
2018-11-07T11:15:30.709Z,99058.00
2018-11-07T11:17:58.901Z,99050.00
2018-11-07T11:20:26.993Z,99060.00
2018-11-07T11:22:55.169Z,99061.00
2018-11-07T11:25:23.332Z,99055.00
2018-11-07T11:27:51.538Z,99055.00
2018-11-07T11:30:19.770Z,99049.00
2018-11-07T11:32:48.003Z,99052.00
2018-11-07T11:35:16.267Z,99062.00
2018-11-07T11:37:44.376Z,99061.00
2018-11-07T11:40:13.673Z,99054.00
2018-11-07T11:42:42.755Z,99051.00
2018-11-07T11:45:13.213Z,99052.00
2018-11-07T11:47:43.030Z,99055.00
2018-11-07T11:50:13.738Z,99051.00
2018-11-07T11:52:43.059Z,99040.00
2018-11-07T11:55:11.337Z,99035.00
2018-11-07T11:57:40.102Z,99042.00
2018-11-07T12:00:12.627Z,99036.00
2018-11-07T12:02:40.651Z,99035.00
2018-11-07T12:05:10.405Z,99028.00
2018-11-07T12:07:38.982Z,99036.00
2018-11-07T12:10:14.845Z,99031.00
2018-11-07T12:12:50.261Z,99028.00
2018-11-07T12:15:19.420Z,99027.00
2018-11-07T12:17:47.662Z,99024.00
2018-11-07T12:20:15.909Z,99031.00
2018-11-07T12:22:49.520Z,99031.00
2018-11-07T12:25:18.395Z,99037.00
2018-11-07T12:27:46.626Z,99029.00
2018-11-07T12:30:16.907Z,99030.00
2018-11-07T12:32:46.509Z,99027.00
2018-11-07T12:35:15.315Z,99023.00
2018-11-07T12:37:43.471Z,99025.00
2018-11-07T12:40:12.283Z,99029.00
2018-11-07T12:42:45.757Z,99023.00
2018-11-07T12:45:14.879Z,99019.00
2018-11-07T12:47:43.024Z,99020.00
2018-11-07T12:50:14.123Z,99008.00
2018-11-07T12:52:42.843Z,99006.00
2018-11-07T12:55:11.755Z,99002.00
2018-11-07T12:57:39.932Z,99001.00
2018-11-07T13:00:12.814Z,98949.00
2018-11-07T13:02:41.101Z,98992.00
2018-11-07T13:05:10.806Z,98987.00
2018-11-07T13:07:39.305Z,98992.00
2018-11-07T13:10:11.121Z,98990.00
2018-11-07T13:12:39.825Z,98984.00
2018-11-07T13:15:09.365Z,98979.00
2018-11-07T13:17:37.552Z,98984.00
2018-11-07T13:20:14.326Z,98975.00
2018-11-07T13:22:43.707Z,98977.00
2018-11-07T13:25:12.433Z,98981.00
2018-11-07T13:27:40.686Z,98989.00
2018-11-07T13:30:12.133Z,98986.00
2018-11-07T13:32:45.474Z,98988.00
2018-11-07T13:35:14.507Z,98987.00
2018-11-07T13:37:43.823Z,98993.00
2018-11-07T13:40:17.889Z,98990.00
2018-11-07T13:42:46.942Z,98990.00
2018-11-07T13:45:16.373Z,98992.00
2018-11-07T13:47:45.600Z,98989.00
2018-11-07T13:50:14.362Z,98992.00
2018-11-07T13:52:42.546Z,98989.00
2018-11-07T13:55:11.748Z,98994.00
2018-11-07T13:57:40.390Z,98995.00
2018-11-07T14:00:12.536Z,99001.00
2018-11-07T14:02:40.693Z,99007.00
2018-11-07T14:05:09.964Z,99005.00
2018-11-07T14:07:38.287Z,99006.00
2018-11-07T14:10:09.457Z,99012.00
2018-11-07T14:12:37.745Z,99020.00
2018-11-07T14:15:09.025Z,99012.00
2018-11-07T14:17:37.355Z,99014.00
2018-11-07T14:20:06.400Z,99015.00
2018-11-07T14:22:34.710Z,99014.00
2018-11-07T14:25:03.100Z,99018.00
2018-11-07T14:27:31.408Z,99020.00
2018-11-07T14:29:59.572Z,99017.00
2018-11-07T14:32:29.169Z,99020.00
2018-11-07T14:34:57.346Z,99019.00
2018-11-07T14:37:25.604Z,99017.00
2018-11-07T14:39:53.788Z,99016.00
2018-11-07T14:42:22.096Z,99021.00
2018-11-07T14:44:50.283Z,99019.00
2018-11-07T14:47:18.677Z,99017.00
2018-11-07T14:49:47.109Z,99022.00
2018-11-07T14:52:15.318Z,99029.00
2018-11-07T14:54:43.627Z,99023.00
2018-11-07T14:57:11.882Z,99031.00
2018-11-07T14:59:40.119Z,99029.00
2018-11-07T15:02:08.534Z,99031.00
2018-11-07T15:04:36.750Z,99034.00
2018-11-07T15:07:05.299Z,99038.00
2018-11-07T15:09:33.383Z,99038.00
2018-11-07T15:12:06.979Z,99047.00
2018-11-07T15:14:35.156Z,99054.00
2018-11-07T15:17:03.423Z,99059.00
2018-11-07T15:19:31.623Z,99067.00
2018-11-07T15:21:59.855Z,99071.00
2018-11-07T15:24:28.038Z,99074.00
2018-11-07T15:26:56.163Z,99077.00
2018-11-07T15:29:24.328Z,99077.00
2018-11-07T15:31:52.855Z,99080.00
2018-11-07T15:34:21.036Z,99086.00
2018-11-07T15:36:49.582Z,99089.00
2018-11-07T15:39:17.866Z,99102.00
2018-11-07T15:41:55.181Z,99114.00
2018-11-07T15:44:23.458Z,99121.00
2018-11-07T15:46:51.655Z,99121.00
2018-11-07T15:49:20.104Z,99120.00
2018-11-07T15:51:53.715Z,99122.00
2018-11-07T15:54:23.229Z,99120.00
2018-11-07T15:56:51.409Z,99123.00
2018-11-07T15:59:19.619Z,99125.00
2018-11-07T16:01:47.890Z,99129.00
2018-11-07T16:04:16.212Z,99129.00
2018-11-07T16:06:44.469Z,99132.00
2018-11-07T16:09:13.597Z,99141.00
2018-11-07T16:11:43.372Z,99145.00
2018-11-07T16:14:11.595Z,99152.00
2018-11-07T16:16:39.799Z,99153.00
2018-11-07T16:19:08.707Z,99154.00
2018-11-07T16:21:36.960Z,99159.00
2018-11-07T16:24:06.134Z,99158.00
2018-11-07T16:26:34.207Z,99165.00
2018-11-07T16:29:02.576Z,99170.00
2018-11-07T16:31:31.484Z,99163.00
2018-11-07T16:34:02.606Z,99168.00
2018-11-07T16:36:32.931Z,99169.00
2018-11-07T16:39:01.960Z,99172.00
2018-11-07T16:41:30.380Z,99179.00
2018-11-07T16:43:58.492Z,99186.00
2018-11-07T16:46:26.787Z,99188.00
2018-11-07T16:48:55.514Z,99188.00
2018-11-07T16:51:23.696Z,99190.00
2018-11-07T16:53:51.968Z,99190.00
2018-11-07T16:56:20.306Z,99199.00
2018-11-07T16:58:48.574Z,99198.00
2018-11-07T17:01:16.837Z,99205.00
2018-11-07T17:03:45.046Z,99209.00
2018-11-07T17:06:13.315Z,99210.00
2018-11-07T17:08:41.559Z,99208.00
2018-11-07T17:11:10.104Z,99214.00
2018-11-07T17:13:38.273Z,99211.00
2018-11-07T17:16:06.535Z,99214.00
2018-11-07T17:18:34.820Z,99209.00
2018-11-07T17:21:03.005Z,99216.00
2018-11-07T17:23:31.185Z,99221.00
2018-11-07T17:25:59.393Z,99223.00
2018-11-07T17:28:27.537Z,99223.00
2018-11-07T17:30:56.338Z,99217.00
2018-11-07T17:33:24.453Z,99222.00
2018-11-07T17:35:52.666Z,99218.00
2018-11-07T17:38:20.811Z,99217.00
2018-11-07T17:40:48.983Z,99211.00
2018-11-07T17:43:18.036Z,99220.00
2018-11-07T17:45:46.279Z,99220.00
2018-11-07T17:48:15.443Z,99222.00
2018-11-07T17:50:43.599Z,99219.00
2018-11-07T17:53:11.780Z,99223.00
2018-11-07T17:55:39.948Z,99221.00
2018-11-07T17:58:08.062Z,99228.00
2018-11-07T18:00:36.279Z,99227.00
2018-11-07T18:03:04.557Z,99231.00
2018-11-07T18:05:32.739Z,99237.00
2018-11-07T18:08:01.196Z,99234.00
2018-11-07T18:10:29.389Z,99234.00
2018-11-07T18:12:57.502Z,99235.00
2018-11-07T18:15:25.705Z,99237.00
2018-11-07T18:17:54.236Z,99237.00
2018-11-07T18:20:22.386Z,99238.00
2018-11-07T18:22:50.713Z,99238.00
2018-11-07T18:25:18.885Z,99238.00
2018-11-07T18:27:47.058Z,99243.00
2018-11-07T18:30:16.356Z,99250.00
2018-11-07T18:32:45.427Z,99251.00
2018-11-07T18:35:15.710Z,99252.00
2018-11-07T18:37:44.734Z,99255.00
2018-11-07T18:40:14.142Z,99258.00
2018-11-07T18:42:43.241Z,99259.00
2018-11-07T18:45:12.312Z,99261.00
2018-11-07T18:47:42.070Z,99272.00
2018-11-07T18:50:12.075Z,99269.00
2018-11-07T18:52:40.687Z,99276.00
2018-11-07T18:55:10.910Z,99292.00
2018-11-07T18:57:39.269Z,99294.00
2018-11-07T19:00:10.802Z,99293.00
2018-11-07T19:02:39.541Z,99300.00
2018-11-07T19:05:08.158Z,99306.00
2018-11-07T19:07:36.859Z,99312.00
2018-11-07T19:10:08.632Z,99313.00
2018-11-07T19:12:37.717Z,99315.00
2018-11-07T19:15:08.569Z,99316.00
2018-11-07T19:17:36.793Z,99321.00
2018-11-07T19:20:05.673Z,99315.00
2018-11-07T19:22:33.909Z,99315.00
2018-11-07T19:25:02.148Z,99314.00
2018-11-07T19:27:30.418Z,99324.00
2018-11-07T19:29:58.761Z,99323.00
2018-11-07T19:32:32.300Z,99325.00
2018-11-07T19:35:01.537Z,99324.00
2018-11-07T19:37:31.412Z,99320.00
2018-11-07T19:39:59.549Z,99324.00
2018-11-07T19:42:27.814Z,99327.00
2018-11-07T19:44:56.102Z,99332.00
2018-11-07T19:47:24.276Z,99341.00
2018-11-07T19:49:52.582Z,99350.00
2018-11-07T19:52:22.036Z,99358.00
2018-11-07T19:54:50.192Z,99359.00
2018-11-07T19:57:18.410Z,99356.00
2018-11-07T19:59:46.633Z,99364.00
2018-11-07T20:02:15.238Z,99372.00
2018-11-07T20:04:43.434Z,99374.00
2018-11-07T20:07:11.690Z,99377.00
2018-11-07T20:09:39.899Z,99380.00
2018-11-07T20:12:08.165Z,99391.00
2018-11-07T20:14:36.371Z,99390.00
2018-11-07T20:17:04.896Z,99393.00
2018-11-07T20:19:33.099Z,99387.00
2018-11-07T20:22:06.398Z,99393.00
2018-11-07T20:24:35.138Z,99399.00
2018-11-07T20:27:03.580Z,99406.00
2018-11-07T20:29:31.840Z,99413.00
2018-11-07T20:31:59.971Z,99408.00
2018-11-07T20:34:28.177Z,99417.00
2018-11-07T20:36:56.439Z,99413.00
2018-11-07T20:39:26.162Z,99417.00
2018-11-07T20:41:55.134Z,99415.00
2018-11-07T20:44:23.201Z,99414.00
2018-11-07T20:46:51.399Z,99410.00
2018-11-07T20:49:25.093Z,99412.00
2018-11-07T20:51:53.495Z,99410.00
2018-11-07T20:54:28.858Z,99410.00
2018-11-07T20:56:58.721Z,99412.00
2018-11-07T20:59:32.310Z,99346.00
2018-11-07T21:02:06.875Z,99416.00
2018-11-07T21:04:36.751Z,99418.00
2018-11-07T21:07:11.467Z,99429.00
2018-11-07T21:09:45.956Z,99427.00
2018-11-07T21:12:25.892Z,99429.00
2018-11-07T21:14:58.492Z,99430.00
2018-11-07T21:17:30.986Z,99429.00
2018-11-07T21:20:00.562Z,99433.00
2018-11-07T21:22:30.545Z,99435.00
2018-11-07T21:25:01.822Z,99430.00
2018-11-07T21:27:45.693Z,99433.00
2018-11-07T21:30:15.851Z,99442.00
2018-11-07T21:32:46.723Z,99445.00
2018-11-07T21:35:22.826Z,99448.00
2018-11-07T21:37:51.376Z,99451.00
2018-11-07T21:40:19.721Z,99449.00
2018-11-07T21:42:48.343Z,99447.00
2018-11-07T21:45:16.695Z,99456.00
2018-11-07T21:47:45.008Z,99456.00
2018-11-07T21:50:15.724Z,99456.00
2018-11-07T21:52:44.215Z,99455.00
2018-11-07T21:55:12.828Z,99455.00
2018-11-07T21:57:41.183Z,99459.00
2018-11-07T22:00:13.722Z,99460.00
2018-11-07T22:02:42.850Z,99462.00
2018-11-07T22:05:12.025Z,99470.00
2018-11-07T22:07:40.494Z,99468.00
2018-11-07T22:10:09.914Z,99459.00
2018-11-07T22:12:38.443Z,99479.00
2018-11-07T22:15:07.532Z,99497.00
2018-11-07T22:17:35.950Z,99502.00
2018-11-07T22:20:08.331Z,99507.00
2018-11-07T22:22:41.961Z,99511.00
2018-11-07T22:25:10.099Z,99514.00
2018-11-07T22:27:39.681Z,99517.00
2018-11-07T22:30:11.241Z,99517.00
2018-11-07T22:32:39.532Z,99523.00
2018-11-07T22:35:09.643Z,99528.00
2018-11-07T22:37:38.319Z,99529.00
2018-11-07T22:40:08.988Z,99527.00
2018-11-07T22:42:37.179Z,99533.00
2018-11-07T22:45:05.829Z,99541.00
2018-11-07T22:47:34.092Z,99541.00
2018-11-07T22:50:03.210Z,99539.00
2018-11-07T22:52:31.440Z,99542.00
2018-11-07T22:55:00.178Z,99548.00
2018-11-07T22:57:28.324Z,99549.00
2018-11-07T22:59:56.443Z,99552.00
2018-11-07T23:02:24.573Z,99564.00
2018-11-07T23:04:52.811Z,99567.00
2018-11-07T23:07:20.969Z,99563.00
2018-11-07T23:09:49.868Z,99569.00
2018-11-07T23:12:18.023Z,99573.00
2018-11-07T23:14:46.489Z,99573.00
2018-11-07T23:17:14.768Z,99581.00
2018-11-07T23:19:42.913Z,99576.00
2018-11-07T23:22:11.096Z,99578.00
2018-11-07T23:24:39.248Z,99568.00
2018-11-07T23:27:08.158Z,99577.00
2018-11-07T23:29:36.331Z,99574.00
2018-11-07T23:32:04.564Z,99568.00
2018-11-07T23:34:32.717Z,99577.00
2018-11-07T23:37:00.888Z,99576.00
2018-11-07T23:39:29.131Z,99570.00
2018-11-07T23:42:06.858Z,99575.00
2018-11-07T23:44:35.032Z,99582.00
2018-11-07T23:47:03.210Z,99582.00
2018-11-07T23:49:31.325Z,99590.00
2018-11-07T23:51:59.522Z,99589.00
2018-11-07T23:54:27.605Z,99586.00
2018-11-07T23:56:55.836Z,99584.00
2018-11-07T23:59:24.022Z,99580.00
